Time;durP1;ratioP1;P1;durP2;ratioP2;P2;SDS_P1;SDS_P2;PMS_P1;PMS_P2;Temp;Humidity;BMP_temperature;BMP_pressure;BME280_temperature;BME280_humidity;BME280_pressure;Samples;Min_cycle;Max_cycle;Signal;HPM_P1;HPM_P2
2022/09/06 00:01:16;;;;;;;1.85;1.45;;;23.10;62.40;;;;;;5074949;28;20068;-28
2022/09/06 00:03:42;;;;;;;2.90;1.60;;;23.10;62.60;;;;;;5075137;28;20468;-28
2022/09/06 00:06:11;;;;;;;2.33;1.60;;;23.00;62.60;;;;;;5074480;28;20056;-34
2022/09/06 00:08:37;;;;;;;1.70;1.40;;;22.90;62.80;;;;;;5074818;28;20024;-31
2022/09/06 00:11:03;;;;;;;2.63;2.00;;;22.90;62.90;;;;;;5074840;28;20028;-28
2022/09/06 00:13:29;;;;;;;2.78;1.70;;;22.80;63.10;;;;;;5074671;28;20044;-28
2022/09/06 00:15:55;;;;;;;2.20;1.70;;;22.80;63.80;;;;;;5075065;28;20025;-27
2022/09/06 00:18:21;;;;;;;3.15;1.45;;;22.80;63.10;;;;;;5074994;28;20380;-27
2022/09/06 00:20:46;;;;;;;1.95;1.42;;;22.80;63.20;;;;;;5074513;28;20024;-26
2022/09/06 00:23:12;;;;;;;2.47;1.40;;;22.80;63.10;;;;;;5074695;28;20028;-31
2022/09/06 00:25:37;;;;;;;1.77;1.30;;;22.80;63.10;;;;;;5074526;28;20365;-27
2022/09/06 00:28:04;;;;;;;2.85;1.67;;;22.80;63.00;;;;;;5074505;28;20074;-28
2022/09/06 00:30:31;;;;;;;2.13;1.23;;;22.80;63.00;;;;;;5074697;28;20367;-28
2022/09/06 00:32:57;;;;;;;1.27;1.17;;;22.80;62.90;;;;;;5074582;28;20025;-28
2022/09/06 00:35:24;;;;;;;2.50;1.73;;;22.80;62.80;;;;;;5074282;28;20089;-28
2022/09/06 00:37:51;;;;;;;3.53;1.40;;;22.80;62.80;;;;;;5074692;28;20052;-28
2022/09/06 00:40:17;;;;;;;2.13;1.52;;;22.80;62.80;;;;;;5074340;28;20036;-28
2022/09/06 00:42:42;;;;;;;2.47;1.50;;;22.80;62.70;;;;;;5074178;28;20021;-29
2022/09/06 00:45:10;;;;;;;2.40;1.60;;;22.80;62.80;;;;;;5072853;28;20016;-30
2022/09/06 00:47:39;;;;;;;1.58;1.40;;;22.80;62.80;;;;;;5073938;28;20079;-29
2022/09/06 00:50:05;;;;;;;2.38;1.73;;;22.80;63.00;;;;;;5074370;28;20020;-27
2022/09/06 00:52:32;;;;;;;1.60;1.50;;;22.80;63.20;;;;;;5074215;28;20044;-28
2022/09/06 00:54:59;;;;;;;1.67;1.38;;;22.70;63.30;;;;;;5074070;28;20387;-27
2022/09/06 00:57:26;;;;;;;1.83;1.45;;;22.70;63.40;;;;;;5073908;28;20051;-28
2022/09/06 00:59:52;;;;;;;1.83;1.33;;;22.70;63.50;;;;;;5073918;28;20013;-27
2022/09/06 01:02:18;;;;;;;2.10;1.55;;;22.70;63.60;;;;;;5073919;28;20484;-28
2022/09/06 01:04:46;;;;;;;2.58;1.30;;;22.60;63.80;;;;;;5074140;28;20056;-30
2022/09/06 01:07:30;;;;;;;2.17;1.40;;;22.60;64.20;;;;;;5074339;28;20017;-27
2022/09/06 01:10:07;;;;;;;1.83;1.45;;;22.70;64.50;;;;;;5072374;28;20062;-27
2022/09/06 01:12:59;;;;;;;1.50;1.40;;;22.60;64.80;;;;;;5073903;28;20017;-30
2022/09/06 01:15:53;;;;;;;2.38;1.40;;;22.60;65.40;;;;;;5073882;28;20109;-28
2022/09/06 01:18:43;;;;;;;1.67;1.30;;;22.50;65.90;;;;;;5072904;28;20139;-28
2022/09/06 01:21:17;;;;;;;2.17;1.42;;;22.50;65.80;;;;;;5073358;28;20047;-26
2022/09/06 01:24:04;;;;;;;2.00;1.60;;;22.40;66.40;;;;;;5072089;28;20035;-27
2022/09/06 01:27:00;;;;;;;1.40;1.30;;;22.30;66.70;;;;;;5073588;28;20048;-27
2022/09/06 01:29:33;;;;;;;2.05;1.33;;;22.20;67.30;;;;;;5073353;28;20024;-27
2022/09/06 01:32:11;;;;;;;1.45;1.30;;;22.10;67.60;;;;;;5073432;28;20016;-28
2022/09/06 01:34:44;;;;;;;2.58;1.40;;;22.00;68.00;;;;;;5073215;28;20078;-27
2022/09/06 01:37:14;;;;;;;2.28;1.30;;;22.00;68.40;;;;;;5073540;28;20471;-29
2022/09/06 01:39:41;;;;;;;2.08;1.63;;;22.00;68.50;;;;;;5073591;28;20457;-28
2022/09/06 01:42:13;;;;;;;1.77;1.50;;;21.80;68.90;;;;;;5073754;28;20472;-27
2022/09/06 01:44:42;;;;;;;2.55;1.55;;;21.80;69.50;;;;;;5073398;28;20037;-26
2022/09/06 01:47:49;;;;;;;2.35;1.70;;;21.60;69.70;;;;;;5072941;28;20113;-26
2022/09/06 01:50:17;;;;;;;1.77;1.58;;;21.50;70.00;;;;;;5073349;28;20025;-30
2022/09/06 01:53:11;;;;;;;3.50;1.80;;;21.50;70.20;;;;;;5072958;28;20055;-27
2022/09/06 01:55:42;;;;;;;;;;;21.50;70.40;;;;;;5073310;28;20031;-27
2022/09/06 01:58:35;;;;;;;1.50;1.40;;;21.40;69.90;;;;;;5071633;28;19913;-32
2022/09/06 02:01:13;;;;;;;1.98;1.50;;;21.40;70.20;;;;;;5073186;28;20052;-30
2022/09/06 02:04:03;;;;;;;1.60;1.50;;;21.40;70.40;;;;;;5073692;28;20055;-33
2022/09/06 02:06:34;;;;;;;1.70;1.55;;;21.40;70.80;;;;;;5073121;28;20047;-26
2022/09/06 02:09:08;;;;;;;2.63;1.90;;;21.30;70.80;;;;;;5073242;28;20028;-27
2022/09/06 02:11:43;;;;;;;2.50;1.63;;;21.30;71.10;;;;;;5073024;28;20743;-26
2022/09/06 02:14:15;;;;;;;1.70;1.60;;;21.30;71.50;;;;;;5073006;28;20024;-27
2022/09/06 02:16:44;;;;;;;2.88;1.70;;;21.20;71.70;;;;;;5072520;28;20029;-27
2022/09/06 02:19:39;;;;;;;2.15;1.60;;;21.10;71.80;;;;;;5072553;28;20342;-29
2022/09/06 02:22:09;;;;;;;1.70;1.60;;;21.10;72.40;;;;;;5071682;28;20422;-27
2022/09/06 02:24:37;;;;;;;1.70;1.50;;;21.10;72.40;;;;;;5072649;28;20396;-27
2022/09/06 02:27:03;;;;;;;1.42;1.33;;;21.10;72.50;;;;;;5072655;28;20024;-27
2022/09/06 02:29:29;;;;;;;2.67;1.45;;;21.10;72.50;;;;;;5072561;28;20059;-28
2022/09/06 02:32:17;;;;;;;1.73;1.63;;;21.10;72.70;;;;;;5072404;28;20056;-28
2022/09/06 02:34:44;;;;;;;1.80;1.70;;;21.10;73.10;;;;;;5072821;28;20040;-27
2022/09/06 02:37:11;;;;;;;1.98;1.70;;;21.20;73.10;;;;;;5071073;28;20032;-30
2022/09/06 02:39:37;;;;;;;2.20;1.77;;;21.20;73.10;;;;;;5070963;28;20033;-25
2022/09/06 02:42:04;;;;;;;2.42;1.90;;;21.20;73.20;;;;;;5072428;28;20074;-27
2022/09/06 02:44:31;;;;;;;2.05;1.90;;;21.20;73.40;;;;;;5072066;28;20028;-28
2022/09/06 02:46:57;;;;;;;3.55;1.95;;;21.20;73.30;;;;;;5072193;28;20045;-29
2022/09/06 02:49:22;;;;;;;2.30;1.98;;;21.20;73.50;;;;;;5072132;28;20415;-27
2022/09/06 02:51:48;;;;;;;4.10;1.67;;;21.20;73.60;;;;;;5072279;28;20424;-26
2022/09/06 02:54:13;;;;;;;2.72;2.25;;;21.20;73.80;;;;;;5072176;28;20031;-25
2022/09/06 02:56:39;;;;;;;2.63;2.20;;;21.10;73.90;;;;;;5072781;28;20029;-27
2022/09/06 02:59:04;;;;;;;3.75;2.55;;;21.10;74.20;;;;;;5070824;28;20032;-25
2022/09/06 03:01:31;;;;;;;2.40;2.20;;;21.00;74.60;;;;;;5072379;28;20036;-26
2022/09/06 03:03:57;;;;;;;3.60;2.33;;;21.00;74.90;;;;;;5070850;28;20155;-25
2022/09/06 03:06:23;;;;;;;2.30;2.10;;;20.90;74.90;;;;;;5071115;28;20064;-27
2022/09/06 03:08:48;;;;;;;3.17;2.45;;;20.80;75.20;;;;;;5070717;28;20045;-26
2022/09/06 03:11:14;;;;;;;2.92;2.40;;;20.80;75.40;;;;;;5072096;28;20035;-26
2022/09/06 03:13:40;;;;;;;2.75;2.40;;;20.70;75.30;;;;;;5072228;28;20047;-26
2022/09/06 03:16:06;;;;;;;2.20;1.92;;;20.70;75.40;;;;;;5072495;28;20021;-26
2022/09/06 03:18:31;;;;;;;2.40;2.20;;;20.80;75.50;;;;;;5072248;28;20029;-27
2022/09/06 03:20:58;;;;;;;2.75;2.10;;;20.80;75.40;;;;;;5072323;28;20021;-33
2022/09/06 03:23:25;;;;;;;2.80;2.10;;;20.80;75.40;;;;;;5072478;28;20463;-33
2022/09/06 03:25:51;;;;;;;2.08;1.85;;;20.80;75.40;;;;;;5072032;28;20024;-27
2022/09/06 03:28:18;;;;;;;2.20;2.00;;;20.80;75.40;;;;;;5071998;28;20025;-25
2022/09/06 03:30:45;;;;;;;2.42;1.80;;;20.90;75.30;;;;;;5072295;28;20349;-26
2022/09/06 03:33:11;;;;;;;2.67;2.22;;;20.90;75.40;;;;;;5072216;28;20386;-25
2022/09/06 03:35:37;;;;;;;1.83;1.73;;;21.00;75.40;;;;;;5072120;28;20048;-25
2022/09/06 03:38:03;;;;;;;2.67;2.28;;;21.00;75.40;;;;;;5071871;28;20067;-26
2022/09/06 03:40:28;;;;;;;4.00;2.33;;;21.00;75.20;;;;;;5072098;28;20025;-25
2022/09/06 03:42:54;;;;;;;2.45;2.10;;;21.00;75.20;;;;;;5075348;28;20119;-25
2022/09/06 03:45:19;;;;;;;2.65;1.90;;;21.00;75.40;;;;;;5075047;28;20028;-26
2022/09/06 03:47:45;;;;;;;2.90;2.28;;;21.00;75.50;;;;;;5075270;28;20021;-26
2022/09/06 03:50:11;;;;;;;3.60;2.20;;;21.00;75.50;;;;;;5075804;28;20483;-25
2022/09/06 03:52:36;;;;;;;2.75;2.17;;;21.00;75.50;;;;;;5075223;28;20025;-27
2022/09/06 03:55:03;;;;;;;2.78;1.83;;;21.00;75.50;;;;;;5075192;28;20028;-27
2022/09/06 03:57:29;;;;;;;2.75;1.85;;;21.00;75.60;;;;;;5075148;28;20031;-26
2022/09/06 03:59:54;;;;;;;3.15;2.08;;;20.90;75.60;;;;;;5075034;28;20028;-25
2022/09/06 04:02:20;;;;;;;2.47;2.08;;;21.00;75.70;;;;;;5073653;28;20063;-31
2022/09/06 04:04:45;;;;;;;2.92;2.00;;;21.00;75.90;;;;;;5074990;28;20124;-26
2022/09/06 04:07:11;;;;;;;2.75;2.10;;;21.00;75.90;;;;;;5075164;28;20430;-25
2022/09/06 04:09:37;;;;;;;2.53;2.03;;;21.00;75.90;;;;;;5074809;28;20106;-30
2022/09/06 04:12:03;;;;;;;2.60;2.20;;;21.00;75.90;;;;;;5075081;28;20016;-26
2022/09/06 04:14:29;;;;;;;2.60;2.15;;;21.00;75.90;;;;;;5074848;28;20027;-26
2022/09/06 04:16:54;;;;;;;2.38;2.17;;;21.10;76.00;;;;;;5074782;28;20344;-29
2022/09/06 04:19:20;;;;;;;4.30;2.40;;;21.10;75.90;;;;;;5074733;28;20103;-27
2022/09/06 04:21:45;;;;;;;3.30;2.72;;;21.10;75.90;;;;;;5073831;28;20029;-27
2022/09/06 04:24:11;;;;;;;3.40;2.45;;;21.10;76.00;;;;;;5074874;28;20029;-25
2022/09/06 04:26:37;;;;;;;2.58;2.30;;;21.10;76.00;;;;;;5074529;28;20356;-27
2022/09/06 04:29:03;;;;;;;2.90;2.50;;;21.10;76.00;;;;;;5074804;28;20035;-26
2022/09/06 04:31:28;;;;;;;2.83;2.60;;;21.10;76.10;;;;;;5075207;28;20512;-26
2022/09/06 04:33:54;;;;;;;2.90;2.50;;;21.20;76.10;;;;;;5073417;28;20484;-27
2022/09/06 04:36:20;;;;;;;3.85;2.70;;;21.20;76.00;;;;;;5074915;28;20028;-25
2022/09/06 04:38:46;;;;;;;3.10;2.60;;;21.20;75.90;;;;;;5074490;28;20028;-28
2022/09/06 04:41:14;;;;;;;2.28;2.17;;;21.20;75.80;;;;;;5074356;28;20021;-25
2022/09/06 04:43:41;;;;;;;2.80;2.53;;;21.20;75.80;;;;;;5074476;28;20025;-26
2022/09/06 04:46:20;;;;;;;3.40;2.63;;;21.20;75.70;;;;;;5074007;28;20085;-25
2022/09/06 04:48:47;;;;;;;4.03;2.50;;;21.20;75.70;;;;;;5073212;28;20028;-26
2022/09/06 04:51:13;;;;;;;3.70;2.53;;;21.20;75.60;;;;;;5074229;28;20079;-25
2022/09/06 04:53:38;;;;;;;4.38;2.50;;;21.30;75.70;;;;;;5071683;28;20024;-27
2022/09/06 04:56:04;;;;;;;3.95;2.50;;;21.30;75.60;;;;;;5074316;28;20029;-27
2022/09/06 04:58:30;;;;;;;2.47;2.28;;;21.30;75.60;;;;;;5072643;28;20025;-29
2022/09/06 05:00:55;;;;;;;3.25;2.45;;;21.20;75.40;;;;;;5074303;28;20048;-32
2022/09/06 05:03:21;;;;;;;2.80;2.50;;;21.30;75.40;;;;;;5073848;28;20017;-25
2022/09/06 05:05:47;;;;;;;2.72;2.40;;;21.30;75.40;;;;;;5074084;28;20021;-26
2022/09/06 05:08:13;;;;;;;4.60;2.63;;;21.20;75.20;;;;;;5074116;28;20017;-28
2022/09/06 05:10:38;;;;;;;2.67;2.47;;;21.30;75.30;;;;;;5073732;28;20031;-29
2022/09/06 05:13:04;;;;;;;3.20;2.42;;;21.30;75.30;;;;;;5073772;28;20032;-27
2022/09/06 05:15:30;;;;;;;3.05;2.50;;;21.20;75.30;;;;;;5074420;28;20020;-30
2022/09/06 05:18:03;;;;;;;3.50;2.60;;;21.20;75.40;;;;;;5074119;28;20111;-29
2022/09/06 05:20:29;;;;;;;2.85;2.20;;;21.20;75.40;;;;;;5073681;28;20020;-26
2022/09/06 05:22:55;;;;;;;3.70;2.90;;;21.20;75.20;;;;;;5073869;28;20032;-31
2022/09/06 05:25:21;;;;;;;2.53;2.30;;;21.20;75.20;;;;;;5073789;28;20095;-27
2022/09/06 05:27:46;;;;;;;2.85;2.55;;;21.10;75.10;;;;;;5073492;28;20024;-27
2022/09/06 05:30:12;;;;;;;3.72;2.40;;;21.10;75.10;;;;;;5073857;28;20031;-28
2022/09/06 05:32:38;;;;;;;2.63;2.42;;;21.20;75.20;;;;;;5073399;28;20115;-28
2022/09/06 05:35:03;;;;;;;5.43;2.55;;;21.10;75.00;;;;;;5073407;28;20078;-26
2022/09/06 05:37:29;;;;;;;5.80;2.70;;;21.10;75.10;;;;;;5073551;28;20024;-38
2022/09/06 05:39:55;;;;;;;3.90;2.58;;;21.10;75.10;;;;;;5073605;28;20028;-33
2022/09/06 05:42:20;;;;;;;4.72;2.80;;;21.10;75.20;;;;;;5073743;28;20046;-34
2022/09/06 05:44:46;;;;;;;5.28;2.58;;;21.10;75.10;;;;;;5073622;28;20025;-33
2022/09/06 05:47:12;;;;;;;5.00;2.80;;;21.20;75.20;;;;;;5071714;28;20053;-33
2022/09/06 05:49:38;;;;;;;3.38;2.83;;;21.20;75.10;;;;;;5073434;28;20013;-34
2022/09/06 05:52:03;;;;;;;3.42;2.83;;;21.20;75.10;;;;;;5071672;28;20047;-33
2022/09/06 05:54:29;;;;;;;2.80;2.55;;;21.20;75.00;;;;;;5073219;28;20028;-34
2022/09/06 05:56:54;;;;;;;3.60;3.10;;;21.20;75.00;;;;;;5073010;28;20476;-33
2022/09/06 05:59:20;;;;;;;3.63;3.05;;;21.20;74.80;;;;;;5072950;28;20046;-34
2022/09/06 06:01:48;;;;;;;3.75;3.30;;;21.30;74.80;;;;;;5073043;28;20033;-33
2022/09/06 06:04:14;;;;;;;3.38;3.08;;;21.30;74.70;;;;;;5072402;28;20025;-33
2022/09/06 06:06:39;;;;;;;4.55;3.40;;;21.30;74.60;;;;;;5072754;28;20531;-34
2022/09/06 06:09:05;;;;;;;3.67;3.05;;;21.30;74.50;;;;;;5072806;28;20086;-34
2022/09/06 06:11:31;;;;;;;4.63;2.92;;;21.30;74.50;;;;;;5073046;28;20013;-33
2022/09/06 06:13:57;;;;;;;3.75;2.75;;;21.30;74.60;;;;;;5072926;28;20035;-33
2022/09/06 06:16:24;;;;;;;2.85;2.60;;;21.30;74.60;;;;;;5072626;28;20107;-33
2022/09/06 06:18:50;;;;;;;3.47;2.70;;;21.30;74.60;;;;;;5072636;28;20051;-34
2022/09/06 06:21:22;;;;;;;3.80;2.60;;;21.30;74.60;;;;;;5072560;28;20032;-33
2022/09/06 06:23:50;;;;;;;3.53;3.10;;;21.30;74.60;;;;;;5072593;28;20048;-35
2022/09/06 06:26:16;;;;;;;3.75;3.03;;;21.30;74.70;;;;;;5073189;28;20028;-33
2022/09/06 06:28:42;;;;;;;4.13;3.08;;;21.20;74.70;;;;;;5073423;28;20024;-34
2022/09/06 06:31:10;;;;;;;3.33;3.03;;;21.10;74.80;;;;;;5072693;28;20104;-35
2022/09/06 06:33:36;;;;;;;3.92;3.45;;;21.10;74.80;;;;;;5071392;28;20035;-34
2022/09/06 06:36:12;;;;;;;3.70;3.40;;;21.10;74.80;;;;;;5071563;28;20027;-34
2022/09/06 06:38:39;;;;;;;3.65;3.22;;;21.10;75.00;;;;;;5072984;28;20100;-41
2022/09/06 06:41:06;;;;;;;3.45;2.90;;;21.10;74.90;;;;;;5072687;28;20090;-35
2022/09/06 06:43:36;;;;;;;3.80;3.40;;;21.10;75.00;;;;;;5073055;28;20028;-35
2022/09/06 06:46:07;;;;;;;3.47;3.05;;;21.20;75.00;;;;;;5072633;28;20060;-34
2022/09/06 06:48:33;;;;;;;3.90;3.28;;;21.20;75.00;;;;;;5072535;28;20077;-34
2022/09/06 06:50:59;;;;;;;3.42;3.13;;;21.20;75.00;;;;;;5072404;28;20476;-34
2022/09/06 06:53:25;;;;;;;3.83;3.35;;;21.20;74.90;;;;;;5072303;28;20040;-33
2022/09/06 06:55:50;;;;;;;3.40;3.10;;;21.20;74.80;;;;;;5072253;28;20388;-34
2022/09/06 06:58:16;;;;;;;3.38;3.08;;;21.30;74.80;;;;;;5072370;28;20024;-33
2022/09/06 07:00:42;;;;;;;3.50;3.20;;;21.30;74.80;;;;;;5072213;28;20025;-34
2022/09/06 07:03:09;;;;;;;3.42;3.10;;;21.30;74.60;;;;;;5072062;28;20511;-34
2022/09/06 07:05:35;;;;;;;6.25;3.85;;;21.30;74.50;;;;;;5072183;28;20020;-34
2022/09/06 07:08:01;;;;;;;4.63;2.85;;;21.30;74.30;;;;;;5072255;28;20407;-34
2022/09/06 07:10:27;;;;;;;4.32;3.03;;;21.40;74.30;;;;;;5072123;28;20024;-44
2022/09/06 07:12:53;;;;;;;3.90;3.50;;;21.40;74.20;;;;;;5070712;28;20029;-41
2022/09/06 07:15:18;;;;;;;3.53;3.00;;;21.40;74.10;;;;;;5071993;28;20361;-35
2022/09/06 07:17:44;;;;;;;3.78;3.05;;;21.40;74.00;;;;;;5075890;28;20020;-34
2022/09/06 07:20:10;;;;;;;3.53;2.83;;;21.40;73.90;;;;;;5075871;28;20028;-35
2022/09/06 07:22:37;;;;;;;3.85;3.05;;;21.50;73.70;;;;;;5075687;28;20093;-43
2022/09/06 07:25:04;;;;;;;3.10;2.80;;;21.60;73.60;;;;;;5075432;28;20036;-34
2022/09/06 07:27:30;;;;;;;3.03;2.78;;;21.60;73.50;;;;;;5075644;28;20020;-35
2022/09/06 07:29:55;;;;;;;3.35;2.90;;;21.60;73.30;;;;;;5074119;28;20183;-35
2022/09/06 07:32:21;;;;;;;2.95;2.70;;;21.60;73.20;;;;;;5075480;28;20052;-34
2022/09/06 07:34:47;;;;;;;4.15;2.67;;;21.70;73.00;;;;;;5074424;28;20438;-36
2022/09/06 07:37:12;;;;;;;4.20;2.42;;;21.70;72.70;;;;;;5074117;28;20115;-34
2022/09/06 07:39:38;;;;;;;2.70;2.50;;;21.80;72.60;;;;;;5075666;28;20028;-35
2022/09/06 07:42:05;;;;;;;3.17;2.58;;;21.80;72.40;;;;;;5074395;28;20032;-35
2022/09/06 07:44:31;;;;;;;2.72;2.40;;;21.80;72.20;;;;;;5075368;28;20063;-35
2022/09/06 07:46:56;;;;;;;3.10;2.80;;;21.90;72.00;;;;;;5075079;28;20509;-36
2022/09/06 07:49:22;;;;;;;2.70;2.50;;;21.90;72.00;;;;;;5075478;28;20016;-33
2022/09/06 07:51:48;;;;;;;3.00;2.70;;;21.90;71.80;;;;;;5074348;28;20043;-37
2022/09/06 07:54:13;;;;;;;2.90;2.70;;;22.00;71.60;;;;;;5075292;28;20104;-36
2022/09/06 07:56:39;;;;;;;3.30;2.53;;;22.10;71.40;;;;;;5075249;28;20033;-35
2022/09/06 07:59:05;;;;;;;5.00;2.70;;;22.10;71.20;;;;;;5075067;28;20115;-34
2022/09/06 08:01:33;;;;;;;3.20;2.55;;;22.10;71.00;;;;;;5075075;28;20024;-35
2022/09/06 08:04:02;;;;;;;2.85;2.65;;;22.10;70.80;;;;;;5074756;28;20074;-35
2022/09/06 08:06:30;;;;;;;2.95;2.67;;;22.20;70.70;;;;;;5075308;28;20375;-35
2022/09/06 08:08:56;;;;;;;2.60;2.40;;;22.20;70.50;;;;;;5075208;28;20021;-37
2022/09/06 08:11:24;;;;;;;2.55;2.35;;;22.30;70.50;;;;;;5074656;28;20025;-35
2022/09/06 08:13:53;;;;;;;2.83;2.53;;;22.30;70.30;;;;;;5074946;28;20097;-35
2022/09/06 08:16:20;;;;;;;3.92;2.78;;;22.40;70.20;;;;;;5074886;28;20021;-34
2022/09/06 08:18:50;;;;;;;4.03;2.67;;;22.40;70.10;;;;;;5074624;28;20028;-36
2022/09/06 08:21:16;;;;;;;8.50;3.33;;;22.50;70.00;;;;;;5074784;28;20033;-34
2022/09/06 08:23:47;;;;;;;3.60;2.88;;;22.50;69.90;;;;;;5074409;28;20365;-35
2022/09/06 08:26:13;;;;;;;3.50;2.80;;;22.50;69.80;;;;;;5074514;28;20021;-36
2022/09/06 08:28:39;;;;;;;3.00;2.72;;;22.60;69.70;;;;;;5074687;28;20373;-35
2022/09/06 08:31:10;;;;;;;3.35;2.60;;;22.60;69.50;;;;;;5074485;28;20028;-35
2022/09/06 08:33:36;;;;;;;3.72;2.88;;;22.70;69.30;;;;;;5074193;28;20098;-33
2022/09/06 08:36:02;;;;;;;3.15;2.83;;;22.70;69.10;;;;;;5074610;28;20390;-35
2022/09/06 08:38:29;;;;;;;3.45;2.85;;;22.80;69.00;;;;;;5072893;28;20032;-36
2022/09/06 08:41:09;;;;;;;4.05;2.85;;;22.80;68.70;;;;;;5074410;28;20032;-36
2022/09/06 08:43:36;;;;;;;3.38;2.85;;;22.90;68.50;;;;;;5072751;28;20029;-37
2022/09/06 08:46:03;;;;;;;3.40;2.92;;;22.90;68.40;;;;;;5074005;28;20051;-35
2022/09/06 08:48:32;;;;;;;3.65;2.67;;;23.00;68.30;;;;;;5072454;28;20424;-36
2022/09/06 08:51:25;;;;;;;2.80;2.38;;;23.10;68.00;;;;;;5074814;28;20055;-36
2022/09/06 08:53:57;;;;;;;4.10;2.60;;;23.10;67.40;;;;;;5073920;28;20037;-36
2022/09/06 08:56:27;;;;;;;3.00;2.38;;;23.20;67.10;;;;;;5074100;28;20025;-36
2022/09/06 08:59:10;;;;;;;3.13;2.30;;;23.20;66.50;;;;;;5074000;28;20099;-36
2022/09/06 09:02:05;;;;;;;4.28;2.42;;;23.30;66.20;;;;;;5073753;28;20489;-35
2022/09/06 09:04:32;;;;;;;2.90;2.38;;;23.40;66.20;;;;;;5073301;28;20033;-44
2022/09/06 09:07:06;;;;;;;4.15;2.75;;;23.50;65.90;;;;;;5074137;28;20035;-37
2022/09/06 09:09:35;;;;;;;2.40;2.20;;;23.60;66.60;;;;;;5072618;28;20476;-37
2022/09/06 09:12:01;;;;;;;3.47;2.50;;;23.70;65.80;;;;;;5073878;28;20020;-37
2022/09/06 09:14:34;;;;;;;2.67;2.47;;;23.80;65.60;;;;;;5073720;28;20468;-36
2022/09/06 09:17:25;;;;;;;3.28;2.50;;;23.90;65.20;;;;;;5073555;28;20074;-41
2022/09/06 09:19:55;;;;;;;3.97;2.58;;;24.00;65.00;;;;;;5073532;28;20035;-36
2022/09/06 09:22:22;;;;;;;2.60;2.30;;;24.00;64.60;;;;;;5074255;28;20023;-35
2022/09/06 09:24:50;;;;;;;4.90;2.83;;;24.10;64.10;;;;;;5073195;28;20368;-35
2022/09/06 09:27:19;;;;;;;3.38;2.22;;;24.10;63.90;;;;;;5071694;28;20418;-34
2022/09/06 09:29:54;;;;;;;3.88;2.40;;;24.20;63.90;;;;;;5073161;28;20440;-34
2022/09/06 09:32:33;;;;;;;4.97;2.40;;;24.30;63.70;;;;;;5073156;28;20032;-34
2022/09/06 09:35:35;;;;;;;3.08;2.17;;;24.30;64.10;;;;;;5072879;28;20024;-35
2022/09/06 09:38:06;;;;;;;2.35;2.13;;;24.40;63.30;;;;;;5072809;28;20089;-36
2022/09/06 09:40:40;;;;;;;4.15;1.85;;;24.50;63.20;;;;;;5072630;28;20423;-36
2022/09/06 09:43:20;;;;;;;2.88;2.35;;;24.60;63.00;;;;;;5073065;28;20513;-35
2022/09/06 09:46:14;;;;;;;2.25;2.05;;;24.60;62.60;;;;;;5072667;28;20044;-36
2022/09/06 09:48:45;;;;;;;3.50;2.13;;;24.70;62.50;;;;;;5071387;28;20506;-35
2022/09/06 09:51:23;;;;;;;3.45;2.30;;;24.80;62.40;;;;;;5072556;28;20021;-37
2022/09/06 09:54:00;;;;;;;3.28;1.95;;;24.80;61.90;;;;;;5071652;28;20108;-36
2022/09/06 09:56:43;;;;;;;2.75;2.03;;;24.90;61.80;;;;;;5072900;28;20146;-36
2022/09/06 09:59:20;;;;;;;2.17;1.73;;;24.90;61.50;;;;;;5073347;28;20117;-36
2022/09/06 10:01:45;;;;;;;3.05;1.92;;;25.00;61.30;;;;;;5072484;28;20328;-35
2022/09/06 10:04:27;;;;;;;3.10;1.88;;;25.10;61.00;;;;;;5072432;28;20029;-36
2022/09/06 10:07:10;;;;;;;2.83;1.60;;;25.10;60.80;;;;;;5072555;28;20103;-34
2022/09/06 10:09:38;;;;;;;1.83;1.65;;;25.30;60.50;;;;;;5072447;28;20024;-34
2022/09/06 10:12:05;;;;;;;3.90;1.52;;;25.30;60.40;;;;;;5072336;28;20388;-36
2022/09/06 10:14:38;;;;;;;2.38;1.60;;;25.30;59.90;;;;;;5072239;28;20020;-35
2022/09/06 10:17:04;;;;;;;3.47;1.70;;;25.40;59.80;;;;;;5072457;28;20024;-35
2022/09/06 10:19:38;;;;;;;2.90;1.40;;;25.40;59.40;;;;;;5072152;28;20361;-35
2022/09/06 10:22:20;;;;;;;2.10;1.50;;;25.40;59.20;;;;;;5072230;28;20048;-34
2022/09/06 10:25:13;;;;;;;2.33;2.10;;;25.40;59.00;;;;;;5072590;28;20029;-37
2022/09/06 10:28:08;;;;;;;2.88;1.70;;;25.50;58.70;;;;;;5071025;28;20318;-35
2022/09/06 10:30:48;;;;;;;1.70;1.60;;;25.50;58.60;;;;;;5072204;28;20016;-33
2022/09/06 10:33:32;;;;;;;1.58;1.40;;;25.60;58.80;;;;;;5072282;28;20016;-35
2022/09/06 10:36:00;;;;;;;2.13;1.70;;;25.60;58.60;;;;;;5071349;28;20033;-34
2022/09/06 10:38:37;;;;;;;1.75;1.55;;;25.70;58.50;;;;;;5072250;28;20020;-34
2022/09/06 10:41:08;;;;;;;1.70;1.60;;;25.70;58.30;;;;;;5072551;28;20445;-35
2022/09/06 10:44:02;;;;;;;3.33;1.58;;;25.80;58.20;;;;;;5072374;28;20044;-36
2022/09/06 10:46:30;;;;;;;;;;;25.90;58.20;;;;;;5061529;28;20040;-35
2022/09/06 10:48:56;;;;;;;2.05;1.52;;;25.90;58.20;;;;;;5072144;28;19954;-35
2022/09/06 10:51:41;;;;;;;2.88;1.50;;;25.90;58.10;;;;;;5072628;28;20048;-34
2022/09/06 10:54:10;;;;;;;2.33;1.77;;;26.00;57.80;;;;;;5076647;28;20075;-35
2022/09/06 10:56:45;;;;;;;2.03;1.23;;;26.00;57.60;;;;;;5076077;28;20126;-34
2022/09/06 10:59:30;;;;;;;4.05;1.70;;;26.00;57.50;;;;;;5076573;28;20033;-40
2022/09/06 11:01:58;;;;;;;2.03;1.60;;;26.00;57.20;;;;;;5076171;28;20031;-35
2022/09/06 11:04:39;;;;;;;3.47;1.60;;;26.10;57.00;;;;;;5074469;28;20033;-34
2022/09/06 11:07:15;;;;;;;1.73;1.50;;;26.20;56.90;;;;;;5076017;28;20075;-35
2022/09/06 11:09:56;;;;;;;4.05;1.50;;;26.20;56.90;;;;;;5075918;28;20471;-35
2022/09/06 11:12:38;;;;;;;3.10;1.63;;;26.30;56.80;;;;;;5075804;28;20307;-34
2022/09/06 11:15:07;;;;;;;3.00;1.67;;;26.30;56.30;;;;;;5074238;28;20095;-35
2022/09/06 11:18:12;;;;;;;1.38;1.20;;;26.30;56.30;;;;;;5075959;28;20024;-34
2022/09/06 11:21:02;;;;;;;2.08;1.33;;;26.40;56.40;;;;;;5073462;28;20025;-36
2022/09/06 11:23:47;;;;;;;1.83;1.50;;;26.40;56.20;;;;;;5075344;28;20044;-36
2022/09/06 11:26:35;;;;;;;1.50;1.40;;;26.40;56.00;;;;;;5075573;28;20400;-34
2022/09/06 11:29:06;;;;;;;4.65;1.70;;;26.50;55.80;;;;;;5075803;28;20020;-36
2022/09/06 11:31:34;;;;;;;1.85;1.50;;;26.50;55.70;;;;;;5075250;28;20017;-36
2022/09/06 11:34:18;;;;;;;2.95;2.05;;;26.50;55.70;;;;;;5075285;28;20467;-35
2022/09/06 11:36:47;;;;;;;2.50;2.00;;;26.60;55.60;;;;;;5075500;28;20016;-35
2022/09/06 11:39:22;;;;;;;3.55;1.90;;;26.60;55.20;;;;;;5075542;28;20027;-35
2022/09/06 11:41:48;;;;;;;4.88;1.88;;;26.60;55.00;;;;;;5075317;28;20059;-35
2022/09/06 11:44:48;;;;;;;2.08;1.42;;;26.70;55.60;;;;;;5074963;28;20060;-42
2022/09/06 11:47:39;;;;;;;1.70;1.40;;;26.80;54.90;;;;;;5074709;28;20446;-36
2022/09/06 11:50:19;;;;;;;1.63;1.27;;;26.90;54.70;;;;;;5074872;28;20039;-37
2022/09/06 11:52:48;;;;;;;2.08;1.40;;;27.00;54.60;;;;;;5075307;28;20103;-35
2022/09/06 11:55:16;;;;;;;1.75;1.20;;;27.10;54.60;;;;;;5074772;28;20111;-42
2022/09/06 11:57:44;;;;;;;1.40;1.30;;;27.20;54.40;;;;;;5075238;28;20103;-35
2022/09/06 12:00:19;;;;;;;1.55;1.45;;;27.40;55.00;;;;;;5073398;28;20031;-36
2022/09/06 12:02:44;;;;;;;1.42;1.33;;;27.40;54.20;;;;;;5074399;28;20031;-36
2022/09/06 12:05:17;;;;;;;2.28;1.42;;;27.50;54.20;;;;;;5074852;28;20364;-36
2022/09/06 12:08:01;;;;;;;;;;;27.50;54.00;;;;;;5075323;28;20056;-37
2022/09/06 12:10:29;;;;;;;1.40;1.23;;;27.60;54.20;;;;;;5074656;28;19943;-35
2022/09/06 12:12:56;;;;;;;1.40;1.30;;;27.70;54.10;;;;;;5074806;28;20033;-36
2022/09/06 12:15:26;;;;;;;2.05;1.42;;;27.70;54.00;;;;;;5074825;28;20558;-35
2022/09/06 12:17:51;;;;;;;2.42;1.50;;;27.80;53.80;;;;;;5075026;28;20456;-36
2022/09/06 12:20:50;;;;;;;3.80;1.35;;;27.80;53.60;;;;;;5073287;28;20032;-34
2022/09/06 12:23:33;;;;;;;2.17;1.27;;;27.80;53.50;;;;;;5074684;28;20115;-36
2022/09/06 12:26:00;;;;;;;3.20;1.40;;;28.00;53.40;;;;;;5074712;28;20498;-35
2022/09/06 12:28:33;;;;;;;2.28;1.38;;;28.10;53.40;;;;;;5074565;28;20016;-36
2022/09/06 12:30:59;;;;;;;1.67;1.58;;;28.20;53.30;;;;;;5074431;28;20066;-36
2022/09/06 12:33:35;;;;;;;1.52;1.35;;;28.20;53.20;;;;;;5074477;28;20029;-36
2022/09/06 12:36:14;;;;;;;1.60;1.45;;;28.20;53.20;;;;;;5074511;28;20028;-36
2022/09/06 12:38:56;;;;;;;3.17;1.48;;;28.20;53.20;;;;;;5074913;28;20020;-36
2022/09/06 12:41:22;;;;;;;4.82;1.73;;;28.20;53.10;;;;;;5074655;28;20025;-36
2022/09/06 12:43:48;;;;;;;2.50;1.45;;;28.20;53.10;;;;;;5074921;28;20028;-36
2022/09/06 12:46:15;;;;;;;2.08;1.40;;;28.30;53.20;;;;;;5074568;28;20106;-41
2022/09/06 12:48:43;;;;;;;2.72;1.80;;;28.30;53.10;;;;;;5074360;28;20426;-35
2022/09/06 12:51:19;;;;;;;5.18;1.50;;;28.30;52.90;;;;;;5074465;28;20138;-35
2022/09/06 12:53:52;;;;;;;2.65;1.70;;;28.30;53.00;;;;;;5074529;28;20031;-36
2022/09/06 12:56:21;;;;;;;;;;;28.30;52.80;;;;;;5074855;28;20027;-34
2022/09/06 12:58:47;;;;;;;2.47;1.90;;;28.30;53.00;;;;;;5074377;28;19991;-36
2022/09/06 13:01:36;;;;;;;1.73;1.35;;;28.20;53.00;;;;;;5074103;28;20451;-37
2022/09/06 13:04:09;;;;;;;1.63;1.30;;;28.30;53.20;;;;;;5073479;28;20155;-35
2022/09/06 13:06:40;;;;;;;2.00;1.70;;;28.40;53.20;;;;;;5072562;28;20234;-36